Time;durP1;ratioP1;P1;durP2;ratioP2;P2;SDS_P1;SDS_P2;PMS_P1;PMS_P2;Temp;Humidity;BMP_temperature;BMP_pressure;BME280_temperature;BME280_humidity;BME280_pressure;Samples;Min_cycle;Max_cycle;Signal;HPM_P1;HPM_P2
2022/09/05 00:01:28;;;;;;;7.07;5.17;;;13.70;99.90;;;;;;4367874;28;657533;-68
2022/09/05 00:04:20;;;;;;;8.77;4.50;;;13.70;99.90;;;;;;4386245;28;657861;-69
2022/09/05 00:07:10;;;;;;;8.83;5.17;;;13.60;99.90;;;;;;4386571;28;658491;-69
2022/09/05 00:10:02;;;;;;;6.97;4.80;;;13.60;99.90;;;;;;4391447;28;658802;-69
2022/09/05 00:12:49;;;;;;;6.60;4.97;;;13.50;99.90;;;;;;4389937;28;659564;-70
2022/09/05 00:15:42;;;;;;;5.80;5.00;;;13.50;99.90;;;;;;4390451;28;659057;-70
2022/09/05 00:18:35;;;;;;;9.83;5.00;;;13.50;99.90;;;;;;4383458;28;657603;-70
2022/09/05 00:21:30;;;;;;;6.23;4.77;;;13.40;99.90;;;;;;4388202;28;658367;-70
2022/09/05 00:24:27;;;;;;;8.60;5.50;;;13.40;99.90;;;;;;4386910;28;657681;-70
2022/09/05 00:27:16;;;;;;;9.30;5.53;;;13.40;99.90;;;;;;4383004;28;657752;-70
2022/09/05 00:30:09;;;;;;;13.37;5.53;;;13.30;99.90;;;;;;4384735;28;657556;-70
2022/09/05 00:33:22;;;;;;;7.33;5.70;;;13.30;99.90;;;;;;4362763;28;659792;-70
2022/09/05 00:36:20;;;;;;;10.53;5.20;;;13.40;99.90;;;;;;4381742;28;657621;-70
2022/09/05 00:39:11;;;;;;;13.93;5.77;;;13.30;99.90;;;;;;4361885;28;660081;-70
2022/09/05 00:41:59;;;;;;;8.17;5.70;;;13.30;99.90;;;;;;4384481;28;658921;-69
2022/09/05 00:44:49;;;;;;;7.60;5.80;;;13.30;99.90;;;;;;4388986;28;658644;-69
2022/09/05 00:47:41;;;;;;;9.53;5.97;;;13.30;99.90;;;;;;4387589;28;658128;-70
2022/09/05 00:50:33;;;;;;;7.87;5.97;;;13.30;99.90;;;;;;4382759;28;658406;-70
2022/09/05 00:53:21;;;;;;;8.63;6.13;;;13.30;99.90;;;;;;4371447;28;657661;-68
2022/09/05 00:56:19;;;;;;;9.83;6.17;;;13.30;99.90;;;;;;4408929;28;658722;-69
2022/09/05 00:59:42;;;;;;;8.10;6.40;;;13.30;99.90;;;;;;4390012;28;657337;-70
2022/09/05 01:02:41;;;;;;;7.53;6.00;;;13.20;99.90;;;;;;4405644;28;657702;-66
2022/09/05 01:05:40;;;;;;;8.63;5.87;;;13.20;99.90;;;;;;4381775;28;657773;-70
2022/09/05 01:08:37;;;;;;;10.00;5.53;;;13.10;99.90;;;;;;4361581;28;658726;-70
2022/09/05 01:11:34;;;;;;;8.67;5.70;;;13.00;99.90;;;;;;4382615;28;659096;-69
2022/09/05 01:14:46;;;;;;;9.93;6.07;;;13.00;99.90;;;;;;4384979;28;658056;-70
2022/09/05 01:17:38;;;;;;;10.93;6.23;;;12.80;99.90;;;;;;4384270;28;658249;-68
2022/09/05 01:20:32;;;;;;;8.43;5.77;;;12.70;99.90;;;;;;4365891;28;658611;-66
2022/09/05 01:23:32;;;;;;;7.23;5.97;;;12.50;99.90;;;;;;4377462;28;657445;-69
2022/09/05 01:26:49;;;;;;;14.03;6.33;;;12.40;99.90;;;;;;4382041;28;657573;-70
2022/09/05 01:29:40;;;;;;;9.48;5.63;;;12.30;99.90;;;;;;4358305;28;659992;-70
2022/09/05 01:32:29;;;;;;;8.60;6.30;;;12.10;99.90;;;;;;4385716;28;658559;-70
2022/09/05 01:35:52;;;;;;;9.93;5.87;;;11.90;99.90;;;;;;4385326;28;657408;-70
2022/09/05 01:38:44;;;;;;;8.00;6.13;;;11.80;99.90;;;;;;4383205;28;658459;-69
2022/09/05 01:41:36;;;;;;;10.60;6.03;;;11.80;99.90;;;;;;4364267;28;658776;-68
2022/09/05 01:44:36;;;;;;;11.33;6.30;;;11.70;99.90;;;;;;4384624;28;659292;-69
2022/09/05 01:47:27;;;;;;;11.20;6.40;;;11.60;99.90;;;;;;4381106;28;659427;-69
2022/09/05 01:50:26;;;;;;;12.23;6.47;;;11.70;99.90;;;;;;4381725;28;658657;-70
2022/09/05 01:53:25;;;;;;;10.60;6.40;;;11.60;99.90;;;;;;4385058;28;658490;-69
2022/09/05 01:56:34;;;;;;;8.80;6.70;;;11.50;99.90;;;;;;4360010;28;658871;-70
2022/09/05 01:59:27;;;;;;;15.90;6.67;;;11.40;99.90;;;;;;4362918;28;658492;-69
2022/09/05 02:02:22;;;;;;;9.33;6.47;;;11.50;99.90;;;;;;4384165;28;658451;-70
2022/09/05 02:05:17;;;;;;;12.23;7.32;;;11.60;99.90;;;;;;4388469;28;657954;-70
2022/09/05 02:08:37;;;;;;;11.13;6.50;;;11.70;99.90;;;;;;4387736;28;658796;-69
2022/09/05 02:11:42;;;;;;;8.77;6.70;;;11.80;99.90;;;;;;4380464;28;658576;-69
2022/09/05 02:14:32;;;;;;;10.87;7.10;;;11.80;99.90;;;;;;4386539;28;658769;-70
2022/09/05 02:17:20;;;;;;;10.33;6.90;;;11.70;99.90;;;;;;4384106;28;658829;-70
2022/09/05 02:20:11;;;;;;;12.43;7.00;;;11.60;99.90;;;;;;4385189;28;659267;-70
2022/09/05 02:23:03;;;;;;;9.17;6.70;;;11.60;99.90;;;;;;4387242;28;659290;-69
2022/09/05 02:25:53;;;;;;;9.20;6.93;;;11.50;99.90;;;;;;4376574;28;658163;-67
2022/09/05 02:28:43;;;;;;;11.83;7.43;;;11.50;99.90;;;;;;4391658;28;658597;-68
2022/09/05 02:31:34;;;;;;;12.93;7.20;;;11.50;99.90;;;;;;4389133;28;659236;-69
2022/09/05 02:34:24;;;;;;;10.83;7.70;;;11.40;99.90;;;;;;4392419;28;658609;-69
2022/09/05 02:37:13;;;;;;;12.93;7.20;;;11.40;99.90;;;;;;4391377;28;658434;-69
2022/09/05 02:40:04;;;;;;;10.53;7.20;;;11.50;99.90;;;;;;4390529;28;658969;-69
2022/09/05 02:42:55;;;;;;;12.03;7.23;;;11.40;99.90;;;;;;4391297;28;659451;-70
2022/09/05 02:45:48;;;;;;;12.07;7.73;;;11.40;99.90;;;;;;4386461;28;660523;-69
2022/09/05 02:48:46;;;;;;;11.93;6.70;;;11.30;99.90;;;;;;4373604;28;658906;-68
2022/09/05 02:51:35;;;;;;;10.33;6.93;;;11.20;99.90;;;;;;4384648;28;659534;-69
2022/09/05 02:54:25;;;;;;;9.23;6.90;;;11.10;99.90;;;;;;4384353;28;659210;-70
2022/09/05 02:57:20;;;;;;;10.70;6.70;;;11.10;99.90;;;;;;4383915;28;658815;-69
2022/09/05 03:00:10;;;;;;;11.50;7.85;;;11.10;99.90;;;;;;4364236;28;658961;-70
2022/09/05 03:03:10;;;;;;;13.23;7.60;;;11.10;99.90;;;;;;4385630;28;658949;-69
2022/09/05 03:05:58;;;;;;;16.17;7.80;;;10.90;99.90;;;;;;4362747;28;659536;-68
2022/09/05 03:09:03;;;;;;;10.03;7.07;;;10.80;99.90;;;;;;4390760;28;659220;-67
2022/09/05 03:12:27;;;;;;;13.60;7.60;;;10.80;99.90;;;;;;4365431;28;658748;-70
2022/09/05 03:15:31;;;;;;;10.60;6.97;;;10.70;99.90;;;;;;4386977;28;658603;-69
2022/09/05 03:18:46;;;;;;;13.57;7.93;;;10.60;99.90;;;;;;4382395;28;659435;-70
2022/09/05 03:21:57;;;;;;;11.33;7.33;;;10.50;99.90;;;;;;4377051;28;658997;-67
2022/09/05 03:25:17;;;;;;;10.97;7.60;;;10.50;99.90;;;;;;4385599;28;659076;-70
2022/09/05 03:28:37;;;;;;;16.73;8.03;;;10.40;99.90;;;;;;4371909;28;659268;-69
2022/09/05 03:31:44;;;;;;;12.83;7.40;;;10.40;99.90;;;;;;4353424;28;659242;-69
2022/09/05 03:34:50;;;;;;;11.40;7.27;;;10.40;99.90;;;;;;4387732;28;658485;-70
2022/09/05 03:37:56;;;;;;;9.43;7.63;;;10.30;99.90;;;;;;4354263;28;660028;-70
2022/09/05 03:41:00;;;;;;;14.23;7.93;;;10.40;99.90;;;;;;4386272;28;658521;-69
2022/09/05 03:44:04;;;;;;;11.40;7.53;;;10.30;99.90;;;;;;4361643;28;659124;-70
2022/09/05 03:47:01;;;;;;;9.80;7.50;;;10.40;99.90;;;;;;4390100;28;658964;-70
2022/09/05 03:50:05;;;;;;;11.03;8.07;;;10.30;99.90;;;;;;4383409;28;657927;-70
2022/09/05 03:53:02;;;;;;;11.20;8.10;;;10.30;99.90;;;;;;4359721;28;660203;-70
2022/09/05 03:55:54;;;;;;;11.20;7.70;;;10.30;99.90;;;;;;4385005;28;658454;-70
2022/09/05 03:58:55;;;;;;;11.53;8.30;;;10.20;99.90;;;;;;4387744;28;658465;-70
2022/09/05 04:01:43;;;;;;;12.10;8.10;;;10.10;99.90;;;;;;4385654;28;659195;-69
2022/09/05 04:04:34;;;;;;;10.10;7.77;;;10.10;99.90;;;;;;4393859;28;659703;-67
2022/09/05 04:07:22;;;;;;;10.33;7.07;;;10.10;99.90;;;;;;4379498;28;658676;-69
2022/09/05 04:10:13;;;;;;;11.10;7.60;;;10.10;99.90;;;;;;4405072;28;659827;-69
2022/09/05 04:13:03;;;;;;;10.90;7.70;;;10.20;99.90;;;;;;4366134;28;657998;-68
2022/09/05 04:15:59;;;;;;;11.47;8.17;;;10.10;99.90;;;;;;4387896;28;659323;-67
2022/09/05 04:18:48;;;;;;;10.50;8.07;;;10.20;99.90;;;;;;4385352;28;658697;-69
2022/09/05 04:21:43;;;;;;;14.13;7.90;;;10.10;99.90;;;;;;4387468;28;658564;-68
2022/09/05 04:24:33;;;;;;;9.57;7.87;;;10.00;99.90;;;;;;4366233;28;658537;-69
2022/09/05 04:27:27;;;;;;;11.70;7.57;;;10.00;99.90;;;;;;4398544;28;657885;-68
2022/09/05 04:30:29;;;;;;;11.07;7.60;;;10.10;99.90;;;;;;4385192;28;658851;-69
2022/09/05 04:33:19;;;;;;;13.90;7.87;;;10.20;99.90;;;;;;4357464;28;659231;-69
2022/09/05 04:36:15;;;;;;;12.27;8.00;;;10.30;99.90;;;;;;4382773;28;658291;-69
2022/09/05 04:39:09;;;;;;;11.50;7.55;;;10.40;99.90;;;;;;4357470;28;659534;-70
2022/09/05 04:41:59;;;;;;;11.17;7.43;;;10.50;99.90;;;;;;4363187;28;660162;-69
2022/09/05 04:44:48;;;;;;;10.53;7.37;;;10.60;99.90;;;;;;4386746;28;658302;-69
2022/09/05 04:47:36;;;;;;;16.23;7.87;;;10.60;99.90;;;;;;4394079;28;658901;-68
2022/09/05 04:50:24;;;;;;;13.50;7.90;;;10.80;99.90;;;;;;4404212;28;659932;-70
2022/09/05 04:53:14;;;;;;;11.57;8.00;;;11.00;99.90;;;;;;4386474;28;658402;-68
2022/09/05 04:56:04;;;;;;;10.93;6.83;;;11.20;99.90;;;;;;4388724;28;658236;-70
2022/09/05 04:58:53;;;;;;;13.20;7.37;;;11.40;99.90;;;;;;4388422;28;658495;-69
2022/09/05 05:01:42;;;;;;;11.93;7.20;;;11.60;99.90;;;;;;4385084;28;659132;-67
2022/09/05 05:04:30;;;;;;;10.80;6.73;;;11.80;99.90;;;;;;4405575;28;658694;-68
2022/09/05 05:07:20;;;;;;;8.90;6.15;;;12.00;99.90;;;;;;4411766;28;658970;-70
2022/09/05 05:10:08;;;;;;;15.07;6.57;;;12.20;99.90;;;;;;4389793;28;659116;-68
2022/09/05 05:13:03;;;;;;;10.05;6.60;;;12.40;99.90;;;;;;4388333;28;659323;-67
2022/09/05 05:15:52;;;;;;;12.47;6.00;;;12.50;99.90;;;;;;4362546;28;658838;-67
2022/09/05 05:18:41;;;;;;;12.43;6.40;;;12.70;99.90;;;;;;4405890;28;658344;-68
2022/09/05 05:21:29;;;;;;;15.57;6.10;;;12.90;99.90;;;;;;4405524;28;659218;-70
2022/09/05 05:24:17;;;;;;;7.17;5.17;;;13.10;99.90;;;;;;4383354;28;659461;-70
2022/09/05 05:27:08;;;;;;;12.83;5.83;;;13.20;99.90;;;;;;4406465;28;657872;-67
2022/09/05 05:30:00;;;;;;;11.83;5.50;;;13.30;99.90;;;;;;4397331;28;658485;-68
2022/09/05 05:32:48;;;;;;;6.40;4.80;;;13.50;99.90;;;;;;4387849;28;659250;-69
2022/09/05 05:35:35;;;;;;;9.17;4.73;;;13.60;99.90;;;;;;4397542;28;657548;-66
2022/09/05 05:38:28;;;;;;;10.50;5.00;;;13.80;99.90;;;;;;4409248;28;658014;-70
2022/09/05 05:41:18;;;;;;;8.03;5.10;;;13.90;99.90;;;;;;4372929;28;659850;-66
2022/09/05 05:44:13;;;;;;;6.47;5.13;;;14.00;99.90;;;;;;4390834;28;657389;-67
2022/09/05 05:47:03;;;;;;;5.77;4.10;;;14.10;99.90;;;;;;4362921;28;657873;-69
2022/09/05 05:49:59;;;;;;;8.20;5.15;;;14.20;99.90;;;;;;4390239;28;657372;-67
2022/09/05 05:53:07;;;;;;;12.87;6.50;;;14.30;99.90;;;;;;4384631;28;657976;-69
2022/09/05 05:56:09;;;;;;;10.77;6.57;;;14.40;99.90;;;;;;4382028;28;658480;-70
2022/09/05 05:59:02;;;;;;;11.63;6.53;;;14.50;99.90;;;;;;4358586;28;659242;-70
2022/09/05 06:02:22;;;;;;;11.37;5.30;;;14.70;99.90;;;;;;4381669;28;658312;-69
2022/09/05 06:05:47;;;;;;;6.13;4.93;;;14.80;99.90;;;;;;4336726;28;658662;-70
2022/09/05 06:08:52;;;;;;;6.93;4.20;;;14.90;99.90;;;;;;4374078;28;657170;-69
2022/09/05 06:11:55;;;;;;;6.37;4.50;;;15.00;99.90;;;;;;4402805;28;657712;-67
2022/09/05 06:15:06;;;;;;;5.73;4.23;;;15.20;99.90;;;;;;4357443;28;657843;-69
2022/09/05 06:18:35;;;;;;;13.20;4.87;;;15.20;99.90;;;;;;4381726;28;658050;-70
2022/09/05 06:22:00;;;;;;;11.03;4.27;;;15.40;99.90;;;;;;4333806;28;659569;-70
2022/09/05 06:25:13;;;;;;;10.53;4.30;;;15.40;99.90;;;;;;4324342;28;659174;-70
2022/09/05 06:28:14;;;;;;;6.20;4.40;;;15.50;99.90;;;;;;4370331;28;658757;-67
2022/09/05 06:31:18;;;;;;;7.20;4.30;;;15.60;99.90;;;;;;4388911;28;657880;-70
2022/09/05 06:34:25;;;;;;;10.43;4.77;;;15.70;99.90;;;;;;4359312;28;657987;-68
2022/09/05 06:37:19;;;;;;;6.07;4.50;;;15.80;99.90;;;;;;4386049;28;658407;-69
2022/09/05 06:40:11;;;;;;;10.57;4.50;;;15.90;99.90;;;;;;4367967;28;658208;-70
2022/09/05 06:43:04;;;;;;;10.60;4.70;;;16.10;99.90;;;;;;4389079;28;660158;-69
2022/09/05 06:46:21;;;;;;;7.73;4.43;;;16.20;99.90;;;;;;4362670;28;658742;-70
2022/09/05 06:49:16;;;;;;;8.17;4.43;;;16.30;99.90;;;;;;4383928;28;658254;-70
2022/09/05 06:52:23;;;;;;;10.47;4.43;;;16.40;99.90;;;;;;4384819;28;658361;-70
2022/09/05 06:55:33;;;;;;;9.00;4.53;;;16.60;99.90;;;;;;4355957;28;658193;-68
2022/09/05 06:59:03;;;;;;;7.23;4.07;;;16.70;99.90;;;;;;4366332;28;657763;-69
2022/09/05 07:01:54;;;;;;;9.03;4.60;;;16.90;99.90;;;;;;4315133;28;658082;-67
2022/09/05 07:04:42;;;;;;;9.53;4.40;;;17.10;99.90;;;;;;4387390;28;657850;-69
2022/09/05 07:07:33;;;;;;;7.00;4.87;;;17.30;99.90;;;;;;4410551;28;658189;-67
2022/09/05 07:10:25;;;;;;;9.97;5.00;;;17.40;99.90;;;;;;4364649;28;657601;-70
2022/09/05 07:13:14;;;;;;;9.63;5.00;;;17.50;99.90;;;;;;4388505;28;658288;-70
2022/09/05 07:16:05;;;;;;;9.50;5.20;;;17.70;99.90;;;;;;4387542;28;657533;-70
2022/09/05 07:18:57;;;;;;;8.73;4.90;;;17.80;99.90;;;;;;4383670;28;658347;-70
2022/09/05 07:21:48;;;;;;;8.10;4.87;;;17.90;99.90;;;;;;4405584;28;657655;-68
2022/09/05 07:24:36;;;;;;;7.40;4.73;;;18.10;99.90;;;;;;4387336;28;657941;-68
2022/09/05 07:27:36;;;;;;;7.00;4.37;;;18.30;99.90;;;;;;4408137;28;659260;-70
2022/09/05 07:30:23;;;;;;;11.37;4.03;;;18.50;99.90;;;;;;4383663;28;658127;-70
2022/09/05 07:33:11;;;;;;;6.90;4.43;;;18.60;99.90;;;;;;4390395;28;658556;-69
2022/09/05 07:36:06;;;;;;;6.97;4.63;;;18.80;99.90;;;;;;4413179;28;658814;-70
2022/09/05 07:38:57;;;;;;;9.83;4.37;;;18.80;99.90;;;;;;4386095;28;657971;-70
2022/09/05 07:41:49;;;;;;;9.63;4.30;;;19.00;99.90;;;;;;4366886;28;658195;-70
2022/09/05 07:44:39;;;;;;;7.70;4.60;;;19.10;99.90;;;;;;4365491;28;657988;-70
2022/09/05 07:47:27;;;;;;;8.23;4.20;;;19.20;99.90;;;;;;4364822;28;657703;-69
2022/09/05 07:50:15;;;;;;;7.03;4.30;;;19.30;99.90;;;;;;4383627;28;658146;-68
2022/09/05 07:53:03;;;;;;;12.30;5.10;;;19.60;99.90;;;;;;4392291;28;660843;-69
2022/09/05 07:55:52;;;;;;;6.80;4.70;;;19.70;99.90;;;;;;4378304;28;659138;-68
2022/09/05 07:58:42;;;;;;;11.23;4.53;;;19.90;99.90;;;;;;4377706;28;657575;-70
2022/09/05 08:01:31;;;;;;;7.47;4.70;;;20.00;99.90;;;;;;4363540;28;658716;-70
2022/09/05 08:04:24;;;;;;;6.77;4.40;;;20.20;99.90;;;;;;4364751;28;657774;-70
2022/09/05 08:07:12;;;;;;;7.37;4.87;;;20.20;99.90;;;;;;4344942;28;658361;-70
2022/09/05 08:10:00;;;;;;;9.93;4.67;;;20.30;99.90;;;;;;4391427;28;657188;-70
2022/09/05 08:12:49;;;;;;;10.10;4.47;;;20.60;99.90;;;;;;4369958;28;658668;-70
2022/09/05 08:15:36;;;;;;;10.40;4.50;;;20.70;99.90;;;;;;4368203;28;659061;-69
2022/09/05 08:18:29;;;;;;;8.03;4.53;;;20.90;99.90;;;;;;4386913;28;659340;-70
2022/09/05 08:21:22;;;;;;;7.47;4.40;;;21.00;99.90;;;;;;4372005;28;657613;-70
2022/09/05 08:24:11;;;;;;;13.10;4.33;;;21.20;99.90;;;;;;4367636;28;657788;-71
2022/09/05 08:27:02;;;;;;;5.80;3.90;;;21.50;99.90;;;;;;4366997;28;660347;-69
2022/09/05 08:29:52;;;;;;;6.63;4.50;;;21.50;99.90;;;;;;4366990;28;657377;-71
2022/09/05 08:32:40;;;;;;;8.97;4.50;;;21.50;99.90;;;;;;4365056;28;658544;-67
2022/09/05 08:35:31;;;;;;;8.27;4.60;;;21.60;99.90;;;;;;4362078;28;658299;-70
2022/09/05 08:38:18;;;;;;;8.63;4.07;;;21.90;99.90;;;;;;4362738;28;658042;-71
2022/09/05 08:41:07;;;;;;;7.57;4.40;;;22.20;99.90;;;;;;4386471;28;657595;-67
2022/09/05 08:44:00;;;;;;;8.03;3.87;;;21.90;99.90;;;;;;4407282;28;658248;-70
2022/09/05 08:46:49;;;;;;;9.03;4.20;;;22.10;99.70;;;;;;4379551;28;658417;-70
2022/09/05 08:49:44;;;;;;;8.47;4.10;;;22.30;99.00;;;;;;4380940;28;657927;-69
2022/09/05 08:52:40;;;;;;;5.20;3.30;;;22.40;99.50;;;;;;4362579;28;657592;-70
2022/09/05 08:55:34;;;;;;;6.00;3.70;;;22.20;97.60;;;;;;4357225;28;659099;-70
2022/09/05 08:58:41;;;;;;;6.13;3.57;;;22.30;99.90;;;;;;4384710;28;657523;-70
2022/09/05 09:01:30;;;;;;;7.00;3.77;;;22.70;97.20;;;;;;4378941;28;658505;-70
2022/09/05 09:04:19;;;;;;;7.40;4.00;;;23.00;95.60;;;;;;4380665;28;659459;-70
2022/09/05 09:07:09;;;;;;;10.13;4.20;;;23.20;94.50;;;;;;4388639;28;657753;-68
2022/09/05 09:10:00;;;;;;;7.43;3.93;;;22.90;96.30;;;;;;4387304;28;658716;-70
2022/09/05 09:13:07;;;;;;;6.87;3.70;;;23.00;94.00;;;;;;4385868;28;658285;-70
2022/09/05 09:15:57;;;;;;;7.90;4.03;;;23.00;94.80;;;;;;4383843;28;657158;-70
2022/09/05 09:19:01;;;;;;;6.13;3.47;;;23.00;95.30;;;;;;4376825;28;658102;-70
2022/09/05 09:21:53;;;;;;;8.40;3.80;;;22.70;93.60;;;;;;4381839;28;658405;-70
2022/09/05 09:24:41;;;;;;;9.07;4.00;;;23.40;93.90;;;;;;4364121;28;657844;-70
2022/09/05 09:27:33;;;;;;;8.87;4.30;;;23.80;91.40;;;;;;4407755;28;658278;-70
2022/09/05 09:30:20;;;;;;;5.93;3.70;;;23.80;90.10;;;;;;4400903;28;657882;-68
2022/09/05 09:33:07;;;;;;;5.67;3.80;;;23.50;92.70;;;;;;4410492;28;657729;-70
2022/09/05 09:35:56;;;;;;;10.93;3.57;;;24.00;90.80;;;;;;4405621;28;657895;-71
2022/09/05 09:38:50;;;;;;;5.88;3.30;;;24.50;88.70;;;;;;4382070;28;659767;-70
2022/09/05 09:41:48;;;;;;;10.77;4.03;;;24.70;89.40;;;;;;4357667;28;658691;-70
2022/09/05 09:45:01;;;;;;;6.22;4.03;;;24.80;86.20;;;;;;4362368;28;659325;-68
2022/09/05 09:48:07;;;;;;;5.65;3.60;;;24.70;82.60;;;;;;4381007;28;657468;-71
2022/09/05 09:51:03;;;;;;;11.95;3.35;;;24.30;82.90;;;;;;4387875;28;657926;-70
2022/09/05 09:54:01;;;;;;;7.30;3.38;;;24.10;84.90;;;;;;4361814;28;658802;-68
2022/09/05 09:56:59;;;;;;;4.55;2.88;;;24.20;80.60;;;;;;4382558;28;661030;-69
2022/09/05 10:00:01;;;;;;;6.93;3.20;;;24.40;76.60;;;;;;4368900;28;661809;-70
2022/09/05 10:03:18;;;;;;;6.45;3.30;;;23.90;77.50;;;;;;4382170;28;661935;-69
2022/09/05 10:06:35;;;;;;;5.75;3.53;;;23.50;80.20;;;;;;4354223;28;658415;-70
2022/09/05 10:09:29;;;;;;;8.00;3.60;;;23.70;82.10;;;;;;4365639;28;658501;-70
2022/09/05 10:12:51;;;;;;;7.82;3.67;;;23.40;84.90;;;;;;4362739;28;658397;-70
2022/09/05 10:15:46;;;;;;;9.82;3.30;;;23.00;80.40;;;;;;4385608;28;658645;-69
2022/09/05 10:18:39;;;;;;;6.83;3.20;;;22.30;83.40;;;;;;4379584;28;658353;-70
2022/09/05 10:21:42;;;;;;;6.57;3.33;;;22.30;82.50;;;;;;4363521;28;658548;-70
2022/09/05 10:24:47;;;;;;;6.63;3.63;;;22.00;80.90;;;;;;4387582;28;657409;-70
2022/09/05 10:27:38;;;;;;;6.30;3.60;;;21.50;83.00;;;;;;4387606;28;658224;-67
2022/09/05 10:30:28;;;;;;;7.00;3.50;;;21.00;88.50;;;;;;4363593;28;657641;-70
2022/09/05 10:33:35;;;;;;;4.17;3.43;;;20.80;88.70;;;;;;4397873;28;657706;-67
2022/09/05 10:36:23;;;;;;;6.13;3.90;;;20.70;91.50;;;;;;4358876;28;659461;-70
2022/09/05 10:39:16;;;;;;;7.33;4.17;;;20.90;92.10;;;;;;4389460;28;657708;-69
2022/09/05 10:42:07;;;;;;;5.50;3.83;;;21.10;91.40;;;;;;4391132;28;658243;-70
2022/09/05 10:44:55;;;;;;;5.20;3.87;;;20.90;90.80;;;;;;4378446;28;657707;-70
2022/09/05 10:47:46;;;;;;;5.50;3.13;;;20.70;91.80;;;;;;4383425;28;659261;-70
2022/09/05 10:50:36;;;;;;;7.63;3.30;;;20.70;91.50;;;;;;4385512;28;658974;-70
2022/09/05 10:53:33;;;;;;;6.87;2.97;;;20.50;91.20;;;;;;4384323;28;657527;-70
2022/09/05 10:56:22;;;;;;;4.63;2.63;;;21.70;91.20;;;;;;4384856;28;658049;-70
2022/09/05 10:59:15;;;;;;;4.17;2.70;;;22.80;87.80;;;;;;4402782;28;657731;-68
2022/09/05 11:02:05;;;;;;;5.67;2.90;;;23.00;78.80;;;;;;4371622;28;658429;-70
2022/09/05 11:04:56;;;;;;;5.23;3.30;;;22.40;80.10;;;;;;4385021;28;657977;-70
2022/09/05 11:07:48;;;;;;;5.00;2.90;;;21.90;82.00;;;;;;4381470;28;657887;-70
2022/09/05 11:10:36;;;;;;;3.47;2.87;;;21.50;83.10;;;;;;4366179;28;658096;-68
2022/09/05 11:13:45;;;;;;;3.40;2.77;;;21.20;82.40;;;;;;4408386;28;658333;-70
2022/09/05 11:16:35;;;;;;;7.43;2.73;;;21.10;85.10;;;;;;4382948;28;657997;-69
2022/09/05 11:19:25;;;;;;;8.17;2.57;;;21.00;84.10;;;;;;4381667;28;659106;-70
2022/09/05 11:22:12;;;;;;;7.77;2.87;;;21.10;83.70;;;;;;4392747;28;658839;-70
2022/09/05 11:25:02;;;;;;;5.43;2.87;;;21.80;87.20;;;;;;4404739;28;658408;-70
2022/09/05 11:27:50;;;;;;;4.57;2.53;;;22.50;81.80;;;;;;4385397;28;657359;-69
2022/09/05 11:30:39;;;;;;;4.43;2.80;;;22.70;79.60;;;;;;4380879;28;659675;-68
2022/09/05 11:34:03;;;;;;;3.77;2.40;;;22.80;77.50;;;;;;4388972;28;657927;-70
2022/09/05 11:36:51;;;;;;;3.27;2.30;;;23.70;77.80;;;;;;4365041;28;658304;-68
2022/09/05 11:40:19;;;;;;;4.00;2.33;;;24.40;76.60;;;;;;4404802;28;658513;-69
2022/09/05 11:43:45;;;;;;;4.43;3.03;;;25.10;71.00;;;;;;4341474;28;658075;-70
2022/09/05 11:46:35;;;;;;;4.78;2.60;;;25.10;69.30;;;;;;4344176;28;658165;-70
2022/09/05 11:49:53;;;;;;;4.38;2.40;;;25.20;71.70;;;;;;4381528;28;658346;-70
2022/09/05 11:53:03;;;;;;;4.75;2.70;;;25.40;68.90;;;;;;4363500;28;658511;-69
2022/09/05 11:56:10;;;;;;;8.35;2.67;;;25.30;66.60;;;;;;4363490;28;657796;-68
2022/09/05 11:59:25;;;;;;;3.03;2.45;;;25.40;65.50;;;;;;4359024;28;658900;-70
2022/09/05 12:02:26;;;;;;;4.53;2.42;;;26.40;62.70;;;;;;4360929;28;658787;-70
2022/09/05 12:05:32;;;;;;;1.80;1.67;;;26.40;62.00;;;;;;4385524;28;658028;-70
2022/09/05 12:08:24;;;;;;;3.78;2.42;;;26.90;59.30;;;;;;4382934;28;657532;-69
2022/09/05 12:11:20;;;;;;;5.97;2.30;;;26.90;59.20;;;;;;4386422;28;657995;-68
2022/09/05 12:14:23;;;;;;;2.75;2.25;;;26.90;57.10;;;;;;4361906;28;659042;-70
2022/09/05 12:17:17;;;;;;;6.50;2.38;;;26.90;58.40;;;;;;4387688;28;657368;-67
2022/09/05 12:20:10;;;;;;;3.10;2.00;;;26.20;60.00;;;;;;4382836;28;658223;-70
2022/09/05 12:22:59;;;;;;;4.00;2.58;;;26.80;56.20;;;;;;4383266;28;658311;-69
2022/09/05 12:25:49;;;;;;;4.35;2.40;;;27.10;57.60;;;;;;4387990;28;657735;-70
2022/09/05 12:28:39;;;;;;;3.28;2.40;;;26.80;57.10;;;;;;4380625;28;658233;-68
2022/09/05 12:31:28;;;;;;;6.20;2.58;;;27.30;57.90;;;;;;4387468;28;657497;-70
2022/09/05 12:34:18;;;;;;;4.85;2.83;;;26.70;57.90;;;;;;4390056;28;657367;-69
2022/09/05 12:37:09;;;;;;;4.45;2.25;;;26.50;58.30;;;;;;4392373;28;657444;-68
2022/09/05 12:39:58;;;;;;;6.18;2.35;;;26.90;60.90;;;;;;4390912;28;657660;-70
2022/09/05 12:42:51;;;;;;;3.65;2.08;;;27.20;57.20;;;;;;4384831;28;657459;-69
2022/09/05 12:45:42;;;;;;;4.22;2.05;;;27.20;56.00;;;;;;4381741;28;658447;-70
2022/09/05 12:48:31;;;;;;;3.25;2.30;;;26.60;55.50;;;;;;4380085;28;657505;-70
2022/09/05 12:51:19;;;;;;;4.35;2.38;;;25.90;56.20;;;;;;4381143;28;658440;-69
2022/09/05 12:54:09;;;;;;;3.10;2.22;;;25.20;57.70;;;;;;4382602;28;657502;-70
2022/09/05 12:56:59;;;;;;;3.78;2.47;;;24.60;62.10;;;;;;4382393;28;657319;-69
2022/09/05 12:59:47;;;;;;;4.38;2.38;;;24.90;64.20;;;;;;4383933;28;657937;-69
2022/09/05 13:02:34;;;;;;;3.22;2.58;;;25.50;58.30;;;;;;4405484;28;657684;-70
2022/09/05 13:05:24;;;;;;;2.90;2.20;;;26.30;59.30;;;;;;4385178;28;658607;-70
2022/09/05 13:08:11;;;;;;;3.97;2.58;;;25.90;56.00;;;;;;4383311;28;658297;-70
2022/09/05 13:11:00;;;;;;;4.28;2.50;;;25.50;58.40;;;;;;4406240;28;658495;-70
2022/09/05 13:13:50;;;;;;;3.80;2.30;;;26.00;58.50;;;;;;4383400;28;658240;-69
2022/09/05 13:16:40;;;;;;;3.35;2.28;;;26.20;55.80;;;;;;4380974;28;658160;-68
2022/09/05 13:19:32;;;;;;;4.47;2.17;;;25.80;53.70;;;;;;4384982;28;657772;-70
2022/09/05 13:22:20;;;;;;;6.82;2.75;;;24.90;57.10;;;;;;4383612;28;657503;-70
2022/09/05 13:25:11;;;;;;;8.02;2.33;;;24.40;59.10;;;;;;4379911;28;659883;-70
2022/09/05 13:28:01;;;;;;;4.75;2.50;;;24.80;58.60;;;;;;4383555;28;658690;-70
2022/09/05 13:30:52;;;;;;;5.95;2.83;;;25.40;58.60;;;;;;4382514;28;658694;-70
2022/09/05 13:33:43;;;;;;;7.70;3.00;;;25.50;56.90;;;;;;4399196;28;657490;-68
2022/09/05 13:36:30;;;;;;;5.90;2.40;;;26.30;57.00;;;;;;4387123;28;658516;-70
2022/09/05 13:39:21;;;;;;;6.30;2.30;;;26.50;55.30;;;;;;4407112;28;659300;-69
2022/09/05 13:42:09;;;;;;;7.63;2.20;;;26.30;55.80;;;;;;4383073;28;659052;-69
2022/09/05 13:44:58;;;;;;;7.03;2.00;;;26.40;53.80;;;;;;4383181;28;657973;-70
2022/09/05 13:48:00;;;;;;;7.57;2.47;;;26.60;53.80;;;;;;4385208;28;658076;-67
2022/09/05 13:50:53;;;;;;;6.32;2.47;;;27.00;54.60;;;;;;4358056;28;658499;-70
2022/09/05 13:53:50;;;;;;;9.10;2.15;;;27.30;53.80;;;;;;4360412;28;657693;-70
2022/09/05 13:56:41;;;;;;;4.55;2.10;;;27.20;51.80;;;;;;4359201;28;658146;-68
2022/09/05 13:59:28;;;;;;;2.67;1.98;;;27.50;53.20;;;;;;4379672;28;658788;-69
2022/09/05 14:02:28;;;;;;;3.42;2.10;;;27.30;51.80;;;;;;4387158;28;657539;-69
2022/09/05 14:05:19;;;;;;;3.13;2.00;;;27.70;50.40;;;;;;4359165;28;658315;-67
2022/09/05 14:08:30;;;;;;;1.98;1.83;;;27.40;50.40;;;;;;4385721;28;658411;-69
2022/09/05 14:11:51;;;;;;;6.30;2.58;;;27.90;49.90;;;;;;4357275;28;657688;-69
2022/09/05 14:14:43;;;;;;;5.28;2.30;;;28.30;48.40;;;;;;4381853;28;658036;-68
2022/09/05 14:17:37;;;;;;;5.03;2.08;;;28.00;48.50;;;;;;4369360;28;657367;-68
2022/09/05 14:23:39;;;;;;;3.08;2.25;;;27.20;50.10;;;;;;4361825;28;657884;-68
2022/09/05 14:26:32;;;;;;;2.97;2.05;;;27.20;49.60;;;;;;4383508;28;658111;-69
2022/09/05 14:29:21;;;;;;;5.60;1.83;;;27.20;47.80;;;;;;4401258;28;658186;-69
2022/09/05 14:32:54;;;;;;;4.32;2.10;;;26.70;48.50;;;;;;4383088;28;658246;-69
2022/09/05 14:35:46;;;;;;;3.63;2.10;;;25.70;51.30;;;;;;4339969;28;657624;-68
2022/09/05 14:38:49;;;;;;;5.13;2.27;;;24.90;54.70;;;;;;4381088;28;659009;-68
2022/09/05 14:42:11;;;;;;;3.40;2.25;;;24.80;56.20;;;;;;4368759;28;657470;-68
2022/09/05 14:45:24;;;;;;;3.28;2.30;;;25.20;61.80;;;;;;4364315;28;658290;-68
2022/09/05 14:48:30;;;;;;;6.68;2.45;;;26.00;56.40;;;;;;4344138;28;658210;-68
2022/09/05 14:51:28;;;;;;;3.92;2.22;;;26.60;50.80;;;;;;4362147;28;658672;-68
2022/09/05 14:54:20;;;;;;;6.75;2.80;;;27.10;51.80;;;;;;4346894;28;658584;-70
2022/09/05 14:57:09;;;;;;;13.88;5.25;;;27.60;50.40;;;;;;4366159;28;658681;-69
2022/09/05 14:59:58;;;;;;;35.05;12.35;;;27.40;50.80;;;;;;4368442;28;658639;-69
2022/09/05 15:02:46;;;;;;;12.90;4.22;;;27.60;49.90;;;;;;4368976;28;659561;-67